Time;durP1;ratioP1;P1;durP2;ratioP2;P2;SDS_P1;SDS_P2;PMS_P1;PMS_P2;Temp;Humidity;BMP_temperature;BMP_pressure;BME280_temperature;BME280_humidity;BME280_pressure;Samples;Min_cycle;Max_cycle;Signal;HPM_P1;HPM_P2
2022/12/16 00:00:16;;;;;;;28.48;15.90;;;0.60;99.90;;;;;;5109167;27;20043;-86
2022/12/16 00:02:42;;;;;;;24.08;15.65;;;0.50;99.90;;;;;;5093676;27;20075;-86
2022/12/16 00:05:08;;;;;;;25.75;16.13;;;0.50;99.90;;;;;;5109114;27;20042;-88
2022/12/16 00:07:33;;;;;;;32.30;16.33;;;0.40;99.90;;;;;;5110544;27;20051;-86
2022/12/16 00:09:59;;;;;;;23.50;15.05;;;0.40;99.90;;;;;;5092105;27;20096;-86
2022/12/16 00:12:25;;;;;;;24.20;14.88;;;0.90;99.90;;;;;;5109185;27;20091;-86
2022/12/16 00:14:50;;;;;;;25.58;14.40;;;0.30;99.90;;;;;;5109860;27;20067;-86
2022/12/16 00:17:16;;;;;;;27.25;14.88;;;0.20;99.90;;;;;;5092350;27;20059;-86
2022/12/16 00:19:42;;;;;;;26.13;14.50;;;0.20;99.90;;;;;;5093088;27;20047;-86
2022/12/16 00:22:07;;;;;;;26.98;14.02;;;0.20;99.90;;;;;;5109106;27;20039;-86
2022/12/16 00:24:33;;;;;;;24.52;14.70;;;0.20;99.90;;;;;;5110258;27;20039;-86
2022/12/16 00:26:59;;;;;;;20.27;14.30;;;0.30;99.90;;;;;;5092056;27;20128;-87
2022/12/16 00:29:25;;;;;;;27.48;15.32;;;0.30;99.90;;;;;;5108969;27;20047;-86
2022/12/16 00:31:51;;;;;;;25.27;12.77;;;0.30;99.90;;;;;;5092202;27;20259;-87
2022/12/16 00:34:16;;;;;;;19.90;11.63;;;0.40;99.90;;;;;;5109519;27;20054;-86
2022/12/16 00:36:43;;;;;;;18.13;12.27;;;0.40;99.90;;;;;;5092037;27;20561;-85
2022/12/16 00:39:09;;;;;;;21.63;11.02;;;0.40;99.90;;;;;;5108099;27;20049;-86
2022/12/16 00:41:36;;;;;;;20.27;9.65;;;0.40;99.90;;;;;;5092784;27;20047;-86
2022/12/16 00:44:02;;;;;;;19.08;9.50;;;0.50;99.90;;;;;;5108130;27;20126;-86
2022/12/16 00:46:28;;;;;;;17.52;7.82;;;0.50;99.90;;;;;;5108817;27;20063;-86
2022/12/16 00:48:54;;;;;;;11.32;5.88;;;0.60;99.90;;;;;;5108799;27;20037;-87
2022/12/16 00:51:20;;;;;;;12.27;6.40;;;1.60;99.90;;;;;;5092236;27;20039;-87
2022/12/16 00:53:46;;;;;;;14.18;4.65;;;0.70;99.90;;;;;;5091451;27;20083;-86
2022/12/16 00:56:18;;;;;;;10.50;4.57;;;0.80;99.90;;;;;;5092101;27;20078;-86
2022/12/16 00:58:44;;;;;;;7.97;4.18;;;0.80;99.90;;;;;;5092330;27;20046;-87
2022/12/16 01:01:10;;;;;;;11.40;4.18;;;0.90;99.90;;;;;;5108264;27;20043;-86
2022/12/16 01:03:37;;;;;;;7.90;3.47;;;1.00;99.90;;;;;;5092186;27;20039;-86
2022/12/16 01:06:12;;;;;;;9.82;4.10;;;1.10;99.90;;;;;;5126954;27;20043;-87
2022/12/16 01:08:38;;;;;;;12.13;4.32;;;0.20;99.90;;;;;;5109021;27;20046;-86
2022/12/16 01:11:04;;;;;;;10.02;3.90;;;1.20;99.90;;;;;;5091618;27;20049;-87
2022/12/16 01:13:30;;;;;;;7.82;3.85;;;1.30;99.90;;;;;;5091558;27;20401;-86
2022/12/16 01:15:59;;;;;;;6.82;3.38;;;1.40;99.90;;;;;;5109129;27;20039;-87
2022/12/16 01:18:24;;;;;;;6.70;2.90;;;1.40;99.90;;;;;;5090569;27;20051;-87
2022/12/16 01:20:50;;;;;;;10.63;3.30;;;1.50;99.90;;;;;;5091623;28;20050;-86
2022/12/16 01:23:16;;;;;;;12.20;3.67;;;1.50;99.90;;;;;;5108275;27;20047;-87
2022/12/16 01:25:42;;;;;;;7.55;3.25;;;1.50;99.90;;;;;;5108314;27;20378;-86
2022/12/16 01:28:08;;;;;;;5.35;2.78;;;1.60;99.90;;;;;;5108020;27;20035;-87
2022/12/16 01:30:33;;;;;;;5.60;2.92;;;2.50;99.90;;;;;;5091083;27;20043;-87
2022/12/16 01:32:59;;;;;;;8.55;2.80;;;2.30;99.90;;;;;;5109348;27;20046;-86
2022/12/16 01:35:25;;;;;;;7.78;3.22;;;1.70;99.90;;;;;;5108068;28;20058;-88
2022/12/16 01:37:51;;;;;;;3.65;2.83;;;1.70;99.90;;;;;;5109067;27;20074;-87
2022/12/16 01:40:20;;;;;;;9.75;3.28;;;1.70;99.90;;;;;;5107494;27;20043;-87
2022/12/16 01:42:45;;;;;;;6.30;2.83;;;1.80;99.90;;;;;;5107880;28;20050;-88
2022/12/16 01:45:29;;;;;;;9.45;3.53;;;1.80;99.90;;;;;;5091494;28;20047;-87
2022/12/16 01:47:58;;;;;;;7.78;3.47;;;2.70;99.90;;;;;;5107823;28;20047;-87
2022/12/16 01:50:25;;;;;;;4.13;2.40;;;1.90;99.90;;;;;;5108635;28;20047;-88
2022/12/16 01:52:56;;;;;;;4.78;2.33;;;1.90;99.90;;;;;;5109152;28;20039;-88
2022/12/16 01:55:26;;;;;;;4.90;2.30;;;2.00;99.90;;;;;;5111023;28;20039;-87
2022/12/16 01:58:10;;;;;;;4.07;2.40;;;2.00;99.90;;;;;;5094555;28;20400;-87
2022/12/16 02:00:36;;;;;;;;;;;2.00;99.90;;;;;;5112438;28;20437;-87
2022/12/16 02:03:02;;;;;;;4.07;2.08;;;2.10;99.90;;;;;;5111039;28;20382;-88
2022/12/16 02:05:28;;;;;;;6.32;2.80;;;2.00;99.90;;;;;;5096735;27;20082;-88
2022/12/16 02:08:16;;;;;;;6.10;2.15;;;2.50;99.90;;;;;;5117499;27;20436;-88
2022/12/16 02:10:42;;;;;;;4.80;2.17;;;2.10;99.90;;;;;;5099145;27;20441;-86
2022/12/16 02:13:29;;;;;;;3.85;1.98;;;2.10;99.90;;;;;;5116167;27;20039;-88
2022/12/16 02:16:23;;;;;;;3.78;2.30;;;2.10;99.90;;;;;;5116445;27;20067;-88
2022/12/16 02:18:55;;;;;;;3.50;2.05;;;2.10;99.90;;;;;;5115343;27;20051;-88
2022/12/16 02:21:23;;;;;;;3.35;1.60;;;2.00;99.90;;;;;;5096669;27;20043;-87
2022/12/16 02:24:12;;;;;;;4.65;2.22;;;2.00;99.90;;;;;;5111899;27;20071;-88
2022/12/16 02:26:56;;;;;;;6.28;2.65;;;2.00;99.90;;;;;;5112011;27;20043;-87
2022/12/16 02:29:54;;;;;;;6.90;3.45;;;1.90;99.90;;;;;;5112908;27;20242;-88
2022/12/16 02:32:47;;;;;;;3.88;2.15;;;1.90;99.90;;;;;;5112066;27;20054;-87
2022/12/16 02:35:41;;;;;;;6.35;2.30;;;1.90;99.90;;;;;;5111467;27;20472;-87
2022/12/16 02:38:09;;;;;;;;;;;1.90;99.90;;;;;;5113045;27;20051;-87
2022/12/16 02:40:47;;;;;;;6.93;2.75;;;1.90;99.90;;;;;;5111336;27;19923;-87
2022/12/16 02:43:38;;;;;;;4.57;2.65;;;1.80;99.90;;;;;;5094718;27;20419;-87
2022/12/16 02:46:06;;;;;;;4.68;2.30;;;1.80;99.90;;;;;;5094628;27;20141;-87
2022/12/16 02:48:31;;;;;;;4.10;2.22;;;1.80;99.90;;;;;;5110986;27;20043;-87
2022/12/16 02:50:57;;;;;;;8.95;2.97;;;1.80;99.90;;;;;;5094971;27;20039;-87
2022/12/16 02:53:23;;;;;;;6.63;2.92;;;1.80;99.90;;;;;;5111674;27;20117;-87
2022/12/16 02:56:18;;;;;;;4.05;2.47;;;1.80;99.90;;;;;;5111888;27;20167;-87
2022/12/16 02:58:50;;;;;;;6.90;3.05;;;1.90;99.90;;;;;;5098135;27;20043;-88
2022/12/16 03:01:15;;;;;;;7.93;4.35;;;1.90;99.90;;;;;;5095271;27;20486;-87
2022/12/16 03:03:53;;;;;;;8.82;3.60;;;1.90;99.90;;;;;;5112845;27;20039;-87
2022/12/16 03:06:21;;;;;;;6.25;4.45;;;1.90;99.90;;;;;;5111367;27;20061;-86
2022/12/16 03:08:52;;;;;;;14.77;5.95;;;1.80;99.90;;;;;;5094746;27;20092;-87
2022/12/16 03:11:18;;;;;;;8.05;4.72;;;1.90;99.90;;;;;;5110502;27;20078;-87
2022/12/16 03:13:48;;;;;;;14.32;6.15;;;1.90;99.90;;;;;;5110817;27;20083;-87
2022/12/16 03:16:17;;;;;;;11.45;6.00;;;1.90;99.90;;;;;;5110195;28;20281;-87
2022/12/16 03:18:47;;;;;;;8.85;6.18;;;1.90;99.90;;;;;;5109096;28;20039;-87
2022/12/16 03:21:14;;;;;;;10.60;7.93;;;1.90;99.90;;;;;;5109816;28;20043;-87
2022/12/16 03:23:51;;;;;;;13.35;7.10;;;2.00;99.90;;;;;;5075734;28;20043;-87
2022/12/16 03:26:36;;;;;;;19.85;8.55;;;2.00;99.90;;;;;;5110008;28;20061;-87
2022/12/16 03:29:13;;;;;;;16.90;10.10;;;2.00;99.90;;;;;;5109930;28;20077;-86
2022/12/16 03:31:41;;;;;;;21.80;12.32;;;2.10;99.90;;;;;;5091815;28;20486;-87
2022/12/16 03:34:15;;;;;;;21.58;12.43;;;2.10;99.90;;;;;;5108884;28;20507;-86
2022/12/16 03:36:44;;;;;;;21.98;14.55;;;2.20;99.90;;;;;;5108842;28;20058;-86
2022/12/16 03:39:11;;;;;;;24.27;14.75;;;2.20;99.90;;;;;;5109739;28;20046;-86
2022/12/16 03:41:37;;;;;;;25.42;15.38;;;2.20;99.90;;;;;;5109104;28;20035;-86
2022/12/16 03:44:03;;;;;;;23.65;16.23;;;2.90;99.90;;;;;;5091569;28;20049;-86
2022/12/16 03:46:29;;;;;;;26.50;15.75;;;2.20;99.90;;;;;;5109191;28;20409;-86
2022/12/16 03:48:55;;;;;;;31.65;17.70;;;2.20;99.90;;;;;;5108618;28;20053;-87
2022/12/16 03:51:20;;;;;;;27.80;17.08;;;2.20;99.90;;;;;;5092533;28;20388;-86
2022/12/16 03:53:46;;;;;;;22.83;15.77;;;2.10;99.90;;;;;;5109337;28;20082;-87
2022/12/16 03:56:12;;;;;;;29.77;17.45;;;2.20;99.90;;;;;;5109731;28;20486;-87
2022/12/16 03:58:39;;;;;;;25.88;15.93;;;2.10;99.90;;;;;;5127466;28;20042;-87
2022/12/16 04:01:08;;;;;;;27.75;15.00;;;2.10;99.90;;;;;;5108787;28;20085;-87
2022/12/16 04:03:34;;;;;;;29.33;17.38;;;2.10;99.90;;;;;;5109148;28;20039;-87
2022/12/16 04:05:59;;;;;;;29.15;17.50;;;2.10;99.90;;;;;;5126591;28;20051;-86
2022/12/16 04:08:25;;;;;;;25.75;17.08;;;3.10;99.90;;;;;;5108762;28;20096;-87
2022/12/16 04:24:34;;;;;;;33.92;19.40;;;1.70;99.90;;;;;;5094913;27;20054;-86
2022/12/16 04:34:24;;;;;;;36.53;20.50;;;1.70;99.90;;;;;;5108313;27;20050;-87
